createdAt,value
2023-01-21T00:00:37.749Z,2.00
2023-01-21T00:03:08.517Z,1.90
2023-01-21T00:05:37.958Z,2.00
2023-01-21T00:08:07.314Z,1.90
2023-01-21T00:10:36.534Z,2.00
2023-01-21T00:13:05.898Z,2.00
2023-01-21T00:15:35.213Z,2.10
2023-01-21T00:18:04.551Z,2.10
2023-01-21T00:20:35.217Z,2.20
2023-01-21T00:23:04.472Z,2.10
2023-01-21T00:25:33.713Z,2.10
2023-01-21T00:28:03.048Z,2.00
2023-01-21T00:30:32.421Z,2.00
2023-01-21T00:33:01.770Z,2.10
2023-01-21T00:35:30.814Z,2.00
2023-01-21T00:38:01.806Z,2.00
2023-01-21T00:40:31.053Z,2.00
2023-01-21T00:43:00.327Z,2.10
2023-01-21T00:45:29.414Z,2.10
2023-01-21T00:47:58.755Z,2.10
2023-01-21T00:50:28.052Z,2.10
2023-01-21T00:52:57.343Z,2.10
2023-01-21T00:55:27.972Z,2.10
2023-01-21T00:57:57.172Z,2.10
2023-01-21T01:00:27.727Z,2.10
2023-01-21T01:02:57.183Z,2.10
2023-01-21T01:05:26.524Z,2.00
2023-01-21T01:07:55.764Z,2.00
2023-01-21T01:10:25.400Z,2.10
2023-01-21T01:12:56.288Z,2.10
2023-01-21T01:15:25.882Z,2.10
2023-01-21T01:17:55.004Z,2.10
2023-01-21T01:20:24.254Z,2.00
2023-01-21T01:22:53.364Z,2.10
2023-01-21T01:25:22.479Z,2.00
2023-01-21T01:27:51.628Z,1.90
2023-01-21T01:30:22.407Z,2.00
2023-01-21T01:32:51.523Z,2.00
2023-01-21T01:35:20.675Z,2.00
2023-01-21T01:37:49.740Z,2.00
2023-01-21T01:40:19.192Z,2.10
2023-01-21T01:42:48.337Z,2.00
2023-01-21T01:45:22.280Z,2.00
2023-01-21T01:47:58.549Z,2.00
2023-01-21T01:50:31.535Z,1.90
2023-01-21T01:53:02.748Z,2.00
2023-01-21T01:55:34.063Z,2.00
2023-01-21T01:58:07.935Z,2.00
2023-01-21T02:00:38.569Z,2.10
2023-01-21T02:03:25.951Z,2.10
2023-01-21T02:06:03.907Z,2.10
2023-01-21T02:08:45.714Z,2.00
2023-01-21T02:11:17.147Z,2.00
2023-01-21T02:13:51.844Z,2.10
2023-01-21T02:16:39.184Z,1.90
2023-01-21T02:19:35.203Z,2.00
2023-01-21T02:22:12.371Z,1.90
2023-01-21T02:25:27.471Z,1.90
2023-01-21T02:28:17.317Z,1.90
2023-01-21T02:31:15.985Z,1.90
2023-01-21T02:33:57.861Z,1.90
2023-01-21T02:36:43.835Z,1.90
2023-01-21T02:39:23.539Z,1.90
2023-01-21T02:42:06.546Z,1.80
2023-01-21T02:44:41.625Z,1.80
2023-01-21T02:47:20.591Z,1.80
2023-01-21T02:49:57.207Z,1.90
2023-01-21T02:52:27.674Z,1.90
2023-01-21T02:54:58.741Z,1.90
2023-01-21T02:57:43.940Z,1.90
2023-01-21T03:00:18.661Z,1.90
2023-01-21T03:03:23.027Z,1.90
2023-01-21T03:06:18.956Z,1.80
2023-01-21T03:08:54.337Z,1.80
2023-01-21T03:11:24.997Z,1.90
2023-01-21T03:14:17.424Z,1.80
2023-01-21T03:17:00.742Z,1.70
2023-01-21T03:19:39.115Z,1.80
2023-01-21T03:22:15.295Z,1.80
2023-01-21T03:24:48.348Z,1.70
2023-01-21T03:27:21.642Z,1.70
2023-01-21T03:29:54.510Z,1.70
2023-01-21T03:32:25.458Z,1.60
2023-01-21T03:34:57.612Z,1.60
2023-01-21T03:37:34.004Z,1.60
2023-01-21T03:40:15.735Z,1.60
2023-01-21T03:42:45.521Z,1.60
2023-01-21T03:45:15.407Z,1.60
2023-01-21T03:47:52.647Z,1.70
2023-01-21T03:50:25.441Z,1.50
2023-01-21T03:52:56.511Z,1.50
2023-01-21T03:55:25.844Z,1.50
2023-01-21T03:57:55.121Z,1.50
2023-01-21T04:00:24.585Z,1.50
2023-01-21T04:02:53.805Z,1.50
2023-01-21T04:05:23.181Z,1.50
2023-01-21T04:07:52.508Z,1.50
2023-01-21T04:10:23.119Z,1.50
2023-01-21T04:12:52.379Z,1.50
2023-01-21T04:15:21.439Z,1.50
2023-01-21T04:17:50.694Z,1.60
2023-01-21T04:20:20.536Z,1.60
2023-01-21T04:22:49.837Z,1.50
2023-01-21T04:25:19.058Z,1.60
2023-01-21T04:27:49.889Z,1.50
2023-01-21T04:30:19.729Z,1.50
2023-01-21T04:32:49.221Z,1.50
2023-01-21T04:35:18.459Z,1.40
2023-01-21T04:37:47.767Z,1.40
2023-01-21T04:40:17.540Z,1.40
2023-01-21T04:42:47.004Z,1.30
2023-01-21T04:45:17.766Z,1.40
2023-01-21T04:47:47.183Z,1.30
2023-01-21T04:50:17.123Z,1.30
2023-01-21T04:52:46.441Z,1.20
2023-01-21T04:55:15.799Z,1.10
2023-01-21T04:57:44.952Z,1.20
2023-01-21T05:00:17.544Z,1.20
2023-01-21T05:02:48.307Z,1.20
2023-01-21T05:05:18.087Z,1.20
2023-01-21T05:07:47.316Z,1.20
2023-01-21T05:10:18.694Z,1.10
2023-01-21T05:12:48.778Z,1.10
2023-01-21T05:15:18.180Z,1.10
2023-01-21T05:17:48.903Z,1.20
2023-01-21T05:20:19.088Z,1.20
2023-01-21T05:22:49.125Z,1.20
2023-01-21T05:25:18.861Z,1.20
2023-01-21T05:27:54.134Z,1.20
2023-01-21T05:30:23.943Z,1.30
2023-01-21T05:32:55.629Z,1.30
2023-01-21T05:35:26.175Z,1.30
2023-01-21T05:37:55.305Z,1.20
2023-01-21T05:40:24.855Z,1.30
2023-01-21T05:42:54.049Z,1.30
2023-01-21T05:45:24.720Z,1.30
2023-01-21T05:47:55.337Z,1.30
2023-01-21T05:50:24.579Z,1.30
2023-01-21T05:52:53.778Z,1.40
2023-01-21T05:55:22.928Z,1.30
2023-01-21T05:57:52.129Z,1.40
2023-01-21T06:00:22.431Z,1.20
2023-01-21T06:02:51.730Z,1.30
2023-01-21T06:05:22.518Z,1.30
2023-01-21T06:07:52.445Z,1.20
2023-01-21T06:10:22.257Z,1.20
2023-01-21T06:12:53.225Z,1.30
2023-01-21T06:15:22.940Z,1.30
2023-01-21T06:17:51.966Z,1.30
2023-01-21T06:20:23.176Z,1.30
2023-01-21T06:22:52.403Z,1.40
2023-01-21T06:25:21.815Z,1.30
2023-01-21T06:27:50.946Z,1.40
2023-01-21T06:30:20.436Z,1.30
2023-01-21T06:32:49.542Z,1.30
2023-01-21T06:35:19.108Z,1.40
2023-01-21T06:37:49.771Z,1.30
2023-01-21T06:40:19.400Z,1.30
2023-01-21T06:42:49.780Z,1.40
2023-01-21T06:45:19.253Z,1.30
2023-01-21T06:47:48.840Z,1.30
2023-01-21T06:50:19.533Z,1.20
2023-01-21T06:52:50.883Z,1.20
2023-01-21T06:55:20.148Z,1.20
2023-01-21T06:57:49.326Z,1.20
2023-01-21T07:00:20.191Z,1.40
2023-01-21T07:02:49.559Z,1.30
2023-01-21T07:05:20.175Z,1.30
2023-01-21T07:07:50.933Z,1.40
2023-01-21T07:10:20.351Z,1.40
2023-01-21T07:12:49.522Z,1.40
2023-01-21T07:15:19.341Z,1.40
2023-01-21T07:17:48.818Z,1.40
2023-01-21T07:20:19.103Z,1.40
2023-01-21T07:22:49.861Z,1.50
2023-01-21T07:25:19.363Z,1.50
2023-01-21T07:27:48.556Z,1.50
2023-01-21T07:30:20.415Z,1.50
2023-01-21T07:32:50.001Z,1.50
2023-01-21T07:35:19.806Z,1.50
2023-01-21T07:37:50.518Z,1.50
2023-01-21T07:40:20.263Z,1.60
2023-01-21T07:42:54.231Z,1.50
2023-01-21T07:45:23.657Z,1.50
2023-01-21T07:47:52.886Z,1.40
2023-01-21T07:50:22.075Z,1.50
2023-01-21T07:52:55.180Z,1.50
2023-01-21T07:55:24.653Z,1.50
2023-01-21T07:57:53.713Z,1.50
2023-01-21T08:00:24.213Z,1.60
2023-01-21T08:02:54.534Z,1.50
2023-01-21T08:05:24.007Z,1.50
2023-01-21T08:07:54.855Z,1.60
2023-01-21T08:10:24.546Z,1.60
2023-01-21T08:12:53.782Z,1.60
2023-01-21T08:15:23.016Z,1.60
2023-01-21T08:17:52.250Z,1.70
2023-01-21T08:20:21.582Z,1.70
2023-01-21T08:22:50.819Z,1.70
2023-01-21T08:25:21.804Z,1.80
2023-01-21T08:27:51.110Z,1.70
2023-01-21T08:30:20.301Z,1.80
2023-01-21T08:32:49.562Z,1.80
2023-01-21T08:35:19.157Z,1.80
2023-01-21T08:37:48.893Z,1.90
2023-01-21T08:40:18.421Z,1.90
2023-01-21T08:42:49.288Z,2.00
2023-01-21T08:45:18.926Z,2.00
2023-01-21T08:47:48.268Z,2.00
2023-01-21T08:50:18.125Z,2.00
2023-01-21T08:52:53.895Z,2.10
2023-01-21T08:55:27.005Z,2.10
2023-01-21T08:57:58.824Z,2.20
2023-01-21T09:00:28.176Z,2.20
2023-01-21T09:02:57.705Z,2.20
2023-01-21T09:05:26.944Z,2.20
2023-01-21T09:07:58.158Z,2.20
2023-01-21T09:10:45.021Z,2.10
2023-01-21T09:13:16.946Z,2.20
2023-01-21T09:15:46.712Z,2.30
2023-01-21T09:18:15.951Z,2.20
2023-01-21T09:20:47.850Z,2.20
2023-01-21T09:23:26.030Z,2.20
2023-01-21T09:25:56.629Z,2.30
2023-01-21T09:28:45.746Z,2.20
2023-01-21T09:31:23.324Z,2.30
2023-01-21T09:34:05.105Z,2.20
2023-01-21T09:36:42.246Z,2.30
2023-01-21T09:39:20.135Z,2.30
2023-01-21T09:42:00.175Z,2.30
2023-01-21T09:44:35.715Z,2.20
2023-01-21T09:47:11.836Z,2.20
2023-01-21T09:49:43.345Z,2.20
2023-01-21T09:52:24.269Z,2.20
2023-01-21T09:54:53.597Z,2.30
2023-01-21T09:58:16.470Z,2.20
2023-01-21T10:00:53.169Z,2.20
2023-01-21T10:03:31.322Z,2.20
2023-01-21T10:06:20.239Z,2.20
2023-01-21T10:09:28.673Z,2.30
2023-01-21T10:12:52.880Z,2.30
2023-01-21T10:15:34.307Z,2.30
2023-01-21T10:18:09.915Z,2.40
2023-01-21T10:20:46.550Z,2.40
2023-01-21T10:23:20.514Z,2.40
2023-01-21T10:25:51.046Z,2.40
2023-01-21T10:28:24.835Z,2.40
2023-01-21T10:30:55.919Z,2.40
2023-01-21T10:33:29.263Z,2.40
2023-01-21T10:36:26.067Z,2.40
2023-01-21T10:39:03.327Z,2.40
2023-01-21T10:41:48.415Z,2.40
2023-01-21T10:44:27.220Z,2.40
2023-01-21T10:47:02.246Z,2.50
2023-01-21T10:49:45.856Z,2.50
2023-01-21T10:52:21.126Z,2.40
2023-01-21T10:54:59.819Z,2.50
2023-01-21T10:57:45.763Z,2.50
2023-01-21T11:00:23.443Z,2.50
2023-01-21T11:02:58.069Z,2.60
2023-01-21T11:05:29.243Z,2.40
2023-01-21T11:08:00.151Z,2.50
2023-01-21T11:10:29.756Z,2.60
2023-01-21T11:12:59.031Z,2.60
2023-01-21T11:15:33.376Z,2.50
2023-01-21T11:18:02.552Z,2.50
2023-01-21T11:20:41.560Z,2.40
2023-01-21T11:23:28.566Z,2.50
2023-01-21T11:26:08.155Z,2.50
2023-01-21T11:28:38.393Z,2.60
2023-01-21T11:31:13.329Z,2.60
2023-01-21T11:33:43.910Z,2.60
2023-01-21T11:36:17.077Z,2.60
2023-01-21T11:38:48.363Z,2.70
2023-01-21T11:41:21.661Z,2.70
2023-01-21T11:43:53.279Z,2.70
2023-01-21T11:46:28.841Z,2.60
2023-01-21T11:49:13.315Z,2.70
2023-01-21T11:51:46.654Z,2.70
2023-01-21T11:54:17.028Z,2.70
2023-01-21T11:56:56.890Z,2.50
2023-01-21T11:59:29.924Z,2.50
2023-01-21T12:02:09.218Z,2.60
2023-01-21T12:04:38.928Z,2.70
2023-01-21T12:07:09.752Z,2.80
2023-01-21T12:09:39.585Z,2.70
2023-01-21T12:12:38.426Z,2.80
2023-01-21T12:15:21.551Z,2.80
2023-01-21T12:18:02.184Z,2.80
2023-01-21T12:20:40.286Z,2.80
2023-01-21T12:23:54.036Z,2.80
2023-01-21T12:26:39.694Z,2.80
2023-01-21T12:29:29.561Z,2.70
2023-01-21T12:32:03.213Z,2.80
2023-01-21T12:34:38.745Z,2.80
2023-01-21T12:37:15.982Z,2.80
2023-01-21T12:39:48.932Z,2.80
2023-01-21T12:42:25.570Z,2.70
2023-01-21T12:44:57.575Z,2.80
2023-01-21T12:47:34.370Z,2.80
2023-01-21T12:50:21.222Z,2.80
2023-01-21T12:53:07.295Z,2.70
2023-01-21T12:55:50.409Z,2.80
2023-01-21T12:58:23.210Z,2.90
2023-01-21T13:00:55.908Z,2.90
2023-01-21T13:03:34.659Z,2.90
2023-01-21T13:06:09.210Z,2.90
2023-01-21T13:08:50.972Z,2.90
2023-01-21T13:11:22.569Z,2.90
2023-01-21T13:14:17.178Z,2.90
2023-01-21T13:16:49.286Z,2.90
2023-01-21T13:19:18.566Z,2.80
2023-01-21T13:21:54.195Z,2.80
2023-01-21T13:24:29.232Z,2.80
2023-01-21T13:27:08.002Z,2.80
2023-01-21T13:29:47.073Z,2.70
2023-01-21T13:32:27.017Z,2.60
2023-01-21T13:35:06.993Z,2.80
2023-01-21T13:37:44.914Z,2.70
2023-01-21T13:40:26.931Z,2.80
2023-01-21T13:43:05.287Z,2.90
2023-01-21T13:45:51.838Z,2.90
2023-01-21T13:48:45.808Z,2.70
2023-01-21T13:51:28.158Z,2.80
2023-01-21T13:54:16.263Z,2.80
2023-01-21T13:56:57.719Z,2.80
2023-01-21T13:59:33.281Z,2.80
2023-01-21T14:02:09.526Z,2.70
2023-01-21T14:04:45.256Z,2.60
2023-01-21T14:07:20.124Z,2.70
2023-01-21T14:09:54.750Z,2.60
2023-01-21T14:12:34.817Z,2.70
2023-01-21T14:15:15.436Z,2.70
2023-01-21T14:18:12.010Z,2.80
2023-01-21T14:21:18.549Z,2.70
2023-01-21T14:24:05.789Z,2.80
2023-01-21T14:26:55.116Z,2.90
2023-01-21T14:29:35.041Z,2.80
2023-01-21T14:32:13.771Z,2.80
2023-01-21T14:34:52.059Z,2.90
2023-01-21T14:37:30.589Z,2.90
2023-01-21T14:40:06.685Z,2.80
2023-01-21T14:42:47.466Z,2.80
2023-01-21T14:45:20.190Z,2.80
2023-01-21T14:47:51.772Z,2.80
2023-01-21T14:50:53.588Z,2.80
2023-01-21T14:53:26.302Z,2.80
2023-01-21T14:56:21.114Z,2.80
2023-01-21T14:58:53.054Z,2.90
2023-01-21T15:01:34.948Z,2.80
2023-01-21T15:04:08.017Z,2.80
2023-01-21T15:06:42.291Z,2.70
2023-01-21T15:09:22.554Z,2.80
2023-01-21T15:11:57.545Z,2.80
2023-01-21T15:14:28.730Z,2.80
2023-01-21T15:16:58.456Z,2.80
2023-01-21T15:19:36.240Z,2.80
2023-01-21T15:22:41.330Z,2.80
2023-01-21T15:25:34.701Z,2.80
2023-01-21T15:28:37.173Z,2.80
2023-01-21T15:31:09.948Z,2.80
2023-01-21T15:33:46.289Z,2.70
2023-01-21T15:36:32.196Z,2.80
2023-01-21T15:39:05.191Z,2.70
2023-01-21T15:41:46.313Z,2.70
2023-01-21T15:44:32.039Z,2.80
2023-01-21T15:47:12.847Z,2.90
2023-01-21T15:49:54.266Z,2.90
2023-01-21T15:52:38.862Z,2.80
2023-01-21T15:55:27.574Z,2.80
2023-01-21T15:58:04.474Z,2.80
2023-01-21T16:00:37.122Z,2.90
2023-01-21T16:03:24.426Z,2.80
2023-01-21T16:06:02.523Z,2.80
2023-01-21T16:08:54.621Z,2.80
2023-01-21T16:11:59.527Z,2.90
2023-01-21T16:14:40.223Z,2.90
2023-01-21T16:17:18.425Z,2.90
2023-01-21T16:19:51.065Z,2.90
2023-01-21T16:22:24.095Z,3.00
2023-01-21T16:24:59.406Z,3.00
2023-01-21T16:27:33.616Z,3.00
2023-01-21T16:30:06.581Z,3.00
2023-01-21T16:32:38.458Z,3.00
2023-01-21T16:35:09.492Z,3.00
2023-01-21T16:37:39.742Z,3.10
2023-01-21T16:40:28.941Z,3.00
2023-01-21T16:43:24.986Z,3.00
2023-01-21T16:45:56.527Z,3.00
2023-01-21T16:48:28.058Z,2.90
2023-01-21T16:50:58.349Z,2.80
2023-01-21T16:53:29.174Z,2.90
2023-01-21T16:56:01.033Z,2.90
2023-01-21T16:58:33.890Z,2.90
2023-01-21T17:01:07.037Z,2.90
2023-01-21T17:03:38.935Z,2.90
2023-01-21T17:06:13.161Z,2.90
2023-01-21T17:08:44.041Z,2.90
2023-01-21T17:11:14.270Z,2.80
2023-01-21T17:13:47.115Z,2.80
2023-01-21T17:16:26.825Z,2.80
2023-01-21T17:19:06.887Z,2.80
2023-01-21T17:21:41.731Z,2.90
2023-01-21T17:24:26.378Z,2.90
2023-01-21T17:27:00.514Z,2.90
2023-01-21T17:29:33.124Z,2.80
2023-01-21T17:32:07.527Z,2.80
2023-01-21T17:34:41.319Z,2.80
2023-01-21T17:37:46.080Z,2.80
2023-01-21T17:40:37.995Z,2.90
2023-01-21T17:43:26.931Z,2.90
2023-01-21T17:45:59.519Z,2.80
2023-01-21T17:48:32.431Z,2.90
2023-01-21T17:51:09.669Z,2.90
2023-01-21T17:53:46.277Z,2.80
2023-01-21T17:56:16.606Z,2.90
2023-01-21T17:58:53.051Z,2.90
2023-01-21T18:01:30.342Z,2.80
2023-01-21T18:04:14.092Z,2.90
2023-01-21T18:06:43.471Z,2.90
2023-01-21T18:09:18.434Z,2.90
2023-01-21T18:11:49.440Z,2.80
2023-01-21T18:14:19.889Z,2.80
2023-01-21T18:16:51.617Z,2.80
2023-01-21T18:19:30.932Z,2.80
2023-01-21T18:22:02.626Z,2.80
2023-01-21T18:24:33.955Z,2.90
2023-01-21T18:27:05.302Z,2.80
2023-01-21T18:29:36.638Z,2.80
2023-01-21T18:32:08.230Z,2.80
2023-01-21T18:34:38.476Z,2.90
2023-01-21T18:37:17.125Z,2.90
2023-01-21T18:39:51.167Z,2.90
2023-01-21T18:42:22.542Z,2.80
2023-01-21T18:44:55.038Z,2.90
2023-01-21T18:47:29.862Z,2.80
2023-01-21T18:50:03.480Z,2.80
2023-01-21T18:52:33.834Z,2.80
2023-01-21T18:55:04.931Z,2.80
2023-01-21T18:57:36.685Z,2.80
2023-01-21T19:00:15.805Z,2.80
2023-01-21T19:02:48.643Z,2.80
2023-01-21T19:05:19.449Z,2.80
2023-01-21T19:07:49.839Z,2.80
2023-01-21T19:10:21.521Z,2.80
2023-01-21T19:12:51.681Z,2.80
2023-01-21T19:15:23.662Z,2.90
2023-01-21T19:17:55.672Z,2.80
2023-01-21T19:20:28.781Z,2.80
2023-01-21T19:23:01.367Z,2.80
2023-01-21T19:25:32.118Z,2.80
2023-01-21T19:28:03.110Z,2.90
2023-01-21T19:30:35.162Z,3.00
2023-01-21T19:33:09.021Z,3.00
2023-01-21T19:35:41.113Z,3.00
2023-01-21T19:38:18.121Z,3.00
2023-01-21T19:41:02.454Z,3.00
2023-01-21T19:43:32.694Z,3.00
2023-01-21T19:46:04.311Z,2.90
2023-01-21T19:48:37.280Z,2.80
2023-01-21T19:51:08.034Z,2.90
2023-01-21T19:53:39.812Z,3.00
2023-01-21T19:56:17.752Z,2.90
2023-01-21T19:58:49.391Z,2.90
2023-01-21T20:01:23.679Z,2.90
2023-01-21T20:04:00.615Z,3.00
2023-01-21T20:06:36.338Z,3.00
2023-01-21T20:09:09.174Z,3.00
2023-01-21T20:11:41.075Z,3.10
2023-01-21T20:14:10.996Z,3.00
2023-01-21T20:16:47.220Z,3.10
2023-01-21T20:19:20.396Z,3.00
2023-01-21T20:22:02.069Z,3.00
2023-01-21T20:24:34.807Z,2.90
2023-01-21T20:27:09.348Z,3.00
2023-01-21T20:29:49.594Z,3.00
2023-01-21T20:32:27.156Z,3.00
2023-01-21T20:35:04.350Z,3.00
2023-01-21T20:37:34.671Z,3.00
2023-01-21T20:40:04.930Z,3.00
2023-01-21T20:42:35.893Z,3.00
2023-01-21T20:45:06.139Z,3.00
2023-01-21T20:47:38.641Z,3.00
2023-01-21T20:50:21.462Z,3.00
2023-01-21T20:52:54.863Z,3.00
2023-01-21T20:55:26.300Z,3.00
2023-01-21T20:57:57.057Z,3.00
2023-01-21T21:00:28.817Z,2.90
2023-01-21T21:02:58.657Z,2.90
2023-01-21T21:05:31.351Z,2.80
2023-01-21T21:08:01.562Z,2.80
2023-01-21T21:10:35.320Z,2.80
2023-01-21T21:13:07.101Z,2.80
2023-01-21T21:15:38.440Z,2.80
2023-01-21T21:18:09.696Z,2.80
2023-01-21T21:20:41.222Z,2.80
2023-01-21T21:23:14.279Z,2.80
2023-01-21T21:25:46.044Z,2.90
2023-01-21T21:28:16.967Z,2.90
2023-01-21T21:30:46.843Z,2.90
2023-01-21T21:33:20.192Z,2.80
2023-01-21T21:35:51.498Z,2.80
2023-01-21T21:38:24.038Z,2.80
2023-01-21T21:40:54.235Z,2.80
2023-01-21T21:43:36.266Z,2.80
2023-01-21T21:46:27.294Z,2.80
2023-01-21T21:48:56.427Z,2.80
2023-01-21T21:51:32.198Z,2.80
2023-01-21T21:54:01.357Z,2.90
2023-01-21T21:56:31.155Z,2.90
2023-01-21T21:59:01.407Z,2.90
2023-01-21T22:01:31.896Z,2.90
2023-01-21T22:04:01.423Z,2.80
2023-01-21T22:06:32.409Z,2.80
2023-01-21T22:09:02.549Z,2.80
2023-01-21T22:11:32.045Z,2.80
2023-01-21T22:14:04.465Z,2.80
2023-01-21T22:16:34.480Z,2.80
2023-01-21T22:19:03.690Z,2.80
2023-01-21T22:21:35.984Z,2.80
2023-01-21T22:24:08.453Z,2.70
2023-01-21T22:26:37.705Z,2.80
2023-01-21T22:29:07.099Z,2.80
2023-01-21T22:31:36.614Z,2.80
2023-01-21T22:34:05.978Z,2.80
2023-01-21T22:36:36.499Z,2.80
2023-01-21T22:39:07.889Z,2.80
2023-01-21T22:41:37.099Z,2.80
2023-01-21T22:44:06.437Z,2.80
2023-01-21T22:46:35.595Z,2.80
2023-01-21T22:49:05.167Z,2.80
2023-01-21T22:51:35.725Z,2.80
2023-01-21T22:54:05.023Z,2.70
2023-01-21T22:56:50.920Z,2.70
2023-01-21T22:59:22.016Z,2.70
2023-01-21T23:01:51.590Z,2.70
2023-01-21T23:04:20.988Z,2.70
2023-01-21T23:06:55.206Z,2.70
2023-01-21T23:09:24.474Z,2.70
2023-01-21T23:11:58.385Z,2.70
2023-01-21T23:14:27.691Z,2.70
2023-01-21T23:16:56.847Z,2.70
2023-01-21T23:19:26.888Z,2.60
2023-01-21T23:21:57.488Z,2.70
2023-01-21T23:24:26.805Z,2.70
2023-01-21T23:26:55.886Z,2.60
2023-01-21T23:29:25.134Z,2.60
2023-01-21T23:31:54.406Z,2.70
2023-01-21T23:34:24.036Z,2.70
2023-01-21T23:36:53.154Z,2.70
2023-01-21T23:39:23.766Z,2.70
2023-01-21T23:41:52.867Z,2.70
2023-01-21T23:44:21.893Z,2.70
2023-01-21T23:46:50.970Z,2.70
2023-01-21T23:49:20.186Z,2.60
2023-01-21T23:51:49.557Z,2.60
2023-01-21T23:54:18.977Z,2.60
2023-01-21T23:56:49.652Z,2.60
2023-01-21T23:59:18.832Z,2.50
